createdAt,value
2018-03-28T00:00:37.730Z,8.30
2018-03-28T00:03:39.712Z,8.50
2018-03-28T00:06:41.714Z,8.40
2018-03-28T00:09:42.974Z,8.40
2018-03-28T00:12:44.249Z,8.40
2018-03-28T00:15:45.502Z,8.30
2018-03-28T00:18:46.804Z,8.30
2018-03-28T00:21:48.087Z,8.30
2018-03-28T00:24:49.355Z,8.40
2018-03-28T00:27:50.616Z,8.30
2018-03-28T00:30:51.879Z,8.30
2018-03-28T00:33:53.134Z,8.20
2018-03-28T00:36:54.367Z,8.20
2018-03-28T00:39:55.659Z,8.20
2018-03-28T00:42:56.884Z,8.30
2018-03-28T00:45:58.963Z,8.30
2018-03-28T00:49:00.268Z,8.20
2018-03-28T00:52:01.569Z,8.20
2018-03-28T00:55:03.613Z,8.20
2018-03-28T00:58:04.895Z,8.20
2018-03-28T01:01:06.163Z,8.20
2018-03-28T01:04:07.458Z,8.10
2018-03-28T01:07:08.729Z,8.10
2018-03-28T01:10:10.009Z,8.20
2018-03-28T01:13:11.264Z,8.20
2018-03-28T01:16:12.559Z,8.20
2018-03-28T01:19:13.864Z,8.20
2018-03-28T01:22:15.868Z,8.30
2018-03-28T01:25:17.126Z,8.30
2018-03-28T01:28:18.537Z,8.30
2018-03-28T01:31:19.943Z,8.30
2018-03-28T01:34:21.176Z,8.30
2018-03-28T01:37:22.425Z,8.40
2018-03-28T01:40:23.704Z,8.40
2018-03-28T01:43:24.962Z,8.50
2018-03-28T01:46:26.220Z,8.50
2018-03-28T01:49:27.938Z,8.40
2018-03-28T01:52:29.209Z,8.40
2018-03-28T01:55:30.441Z,8.40
2018-03-28T01:58:32.420Z,8.40
2018-03-28T02:01:34.444Z,8.40
2018-03-28T02:04:35.727Z,8.40
2018-03-28T02:07:36.991Z,8.50
2018-03-28T02:10:38.244Z,8.50
2018-03-28T02:13:39.476Z,8.50
2018-03-28T02:16:47.845Z,8.50
2018-03-28T02:19:49.107Z,8.50
2018-03-28T02:22:50.387Z,8.40
2018-03-28T02:25:51.619Z,8.30
2018-03-28T02:28:52.879Z,8.30
2018-03-28T02:31:54.173Z,8.20
2018-03-28T02:34:56.179Z,8.30
2018-03-28T02:37:58.160Z,8.30
2018-03-28T02:41:00.168Z,8.30
2018-03-28T02:44:01.460Z,8.30
2018-03-28T02:47:02.763Z,8.30
2018-03-28T02:50:04.039Z,8.40
2018-03-28T02:53:06.068Z,8.40
2018-03-28T02:56:07.327Z,8.40
2018-03-28T02:59:08.619Z,8.50
2018-03-28T03:02:09.939Z,8.50
2018-03-28T03:05:11.159Z,8.60
2018-03-28T03:08:12.439Z,8.50
2018-03-28T03:11:14.438Z,8.60
2018-03-28T03:14:15.689Z,8.50
2018-03-28T03:17:17.714Z,8.50
2018-03-28T03:20:18.996Z,8.50
2018-03-28T03:23:20.291Z,8.40
2018-03-28T03:26:22.287Z,8.40
2018-03-28T03:29:23.538Z,8.40
2018-03-28T03:32:25.554Z,8.40
2018-03-28T03:35:26.812Z,8.40
2018-03-28T03:38:28.105Z,8.40
2018-03-28T03:41:29.370Z,8.40
2018-03-28T03:44:30.631Z,8.40
2018-03-28T03:47:32.610Z,8.40
2018-03-28T03:50:33.921Z,8.40
2018-03-28T03:53:35.916Z,8.40
2018-03-28T03:56:37.183Z,8.40
2018-03-28T03:59:38.473Z,8.40
2018-03-28T04:02:39.751Z,8.30
2018-03-28T04:05:41.004Z,8.40
2018-03-28T04:08:42.271Z,8.30
2018-03-28T04:11:43.503Z,8.40
2018-03-28T04:14:44.767Z,8.40
2018-03-28T04:17:46.024Z,8.30
2018-03-28T04:20:47.286Z,8.40
2018-03-28T04:23:49.602Z,8.40
2018-03-28T04:26:50.862Z,8.50
2018-03-28T04:29:52.155Z,8.50
2018-03-28T04:32:53.396Z,8.40
2018-03-28T04:35:54.660Z,8.40
2018-03-28T04:38:55.923Z,8.40
2018-03-28T04:41:57.908Z,8.20
2018-03-28T04:44:59.891Z,8.20
2018-03-28T04:48:01.155Z,8.20
2018-03-28T04:51:02.626Z,8.30
2018-03-28T04:54:03.856Z,8.20
2018-03-28T04:57:05.118Z,8.30
2018-03-28T05:00:06.357Z,8.30
2018-03-28T05:03:08.379Z,8.20
2018-03-28T05:06:09.659Z,8.20
2018-03-28T05:09:10.935Z,8.20
2018-03-28T05:12:12.188Z,8.20
2018-03-28T05:15:13.555Z,8.20
2018-03-28T05:18:14.819Z,8.20
2018-03-28T05:21:16.106Z,8.20
2018-03-28T05:24:17.312Z,8.20
2018-03-28T05:27:18.736Z,8.00
2018-03-28T05:30:20.720Z,8.20
2018-03-28T05:33:22.762Z,8.10
2018-03-28T05:36:24.759Z,8.20
2018-03-28T05:39:26.021Z,8.10
2018-03-28T05:42:27.320Z,8.20
2018-03-28T05:45:29.350Z,8.20
2018-03-28T05:48:30.624Z,8.20
2018-03-28T05:51:31.982Z,8.10
2018-03-28T05:54:33.308Z,8.10
2018-03-28T05:57:35.252Z,8.20
2018-03-28T06:00:36.538Z,8.20
2018-03-28T06:03:38.535Z,8.20
2018-03-28T06:06:39.783Z,8.20
2018-03-28T06:09:41.789Z,8.40
2018-03-28T06:12:43.028Z,8.40
2018-03-28T06:15:45.070Z,8.30
2018-03-28T06:18:46.314Z,8.30
2018-03-28T06:21:47.597Z,8.30
2018-03-28T06:24:48.847Z,8.30
2018-03-28T06:27:50.100Z,8.30
2018-03-28T06:30:51.414Z,8.30
2018-03-28T06:33:53.380Z,8.10
2018-03-28T06:36:54.651Z,8.10
2018-03-28T06:39:56.633Z,8.00
2018-03-28T06:42:58.622Z,8.00
2018-03-28T06:46:00.651Z,8.00
2018-03-28T06:49:01.898Z,8.00
2018-03-28T06:52:03.208Z,8.00
2018-03-28T06:55:04.470Z,8.00
2018-03-28T06:58:05.764Z,8.00
2018-03-28T07:01:07.762Z,8.20
2018-03-28T07:04:08.980Z,8.20
2018-03-28T07:07:10.241Z,8.20
2018-03-28T07:10:11.587Z,8.20
2018-03-28T07:13:12.817Z,8.30
2018-03-28T07:16:14.070Z,8.20
2018-03-28T07:19:15.355Z,8.40
2018-03-28T07:22:16.617Z,8.50
2018-03-28T07:25:17.908Z,8.40
2018-03-28T07:28:19.163Z,8.30
2018-03-28T07:31:20.416Z,8.40
2018-03-28T07:34:21.728Z,8.40
2018-03-28T07:37:23.704Z,8.40
2018-03-28T07:40:25.695Z,8.40
2018-03-28T07:43:27.715Z,8.40
2018-03-28T07:46:28.979Z,8.40
2018-03-28T07:49:30.248Z,8.30
2018-03-28T07:52:31.513Z,8.30
2018-03-28T07:55:32.754Z,8.30
2018-03-28T07:58:34.126Z,8.60
2018-03-28T08:01:36.099Z,9.20
2018-03-28T08:07:54.399Z,9.20
2018-03-28T08:10:55.658Z,8.90
2018-03-28T08:13:56.907Z,9.10
2018-03-28T08:16:58.174Z,9.00
2018-03-28T08:19:59.408Z,8.90
2018-03-28T08:23:00.663Z,8.90
2018-03-28T08:26:01.904Z,8.90
2018-03-28T08:29:03.164Z,8.90
2018-03-28T08:32:04.408Z,9.10
2018-03-28T08:35:05.697Z,9.10
2018-03-28T08:38:06.951Z,9.20
2018-03-28T08:41:08.202Z,9.10
2018-03-28T08:44:09.437Z,9.10
2018-03-28T08:47:11.427Z,9.20
2018-03-28T08:50:12.675Z,9.20
2018-03-28T08:53:14.687Z,9.20
2018-03-28T08:56:15.929Z,9.20
2018-03-28T08:59:17.182Z,9.30
2018-03-28T09:02:19.201Z,9.30
2018-03-28T09:05:20.544Z,9.30
2018-03-28T09:08:21.798Z,9.20
2018-03-28T09:11:23.074Z,9.20
2018-03-28T09:14:24.371Z,9.10
2018-03-28T09:17:25.651Z,9.10
2018-03-28T09:20:26.922Z,9.20
2018-03-28T09:23:28.159Z,9.30
2018-03-28T09:26:29.494Z,9.30
2018-03-28T09:29:30.774Z,9.30
2018-03-28T09:32:32.023Z,9.50
2018-03-28T09:35:33.268Z,9.50
2018-03-28T09:38:34.514Z,9.50
2018-03-28T09:41:36.505Z,9.60
2018-03-28T09:44:38.540Z,9.70
2018-03-28T09:47:39.806Z,9.60
2018-03-28T09:50:41.067Z,9.60
2018-03-28T09:53:42.287Z,9.60
2018-03-28T09:56:43.565Z,9.60
2018-03-28T09:59:44.827Z,9.60
2018-03-28T10:02:46.099Z,9.60
2018-03-28T10:05:47.401Z,9.60
2018-03-28T10:08:48.698Z,9.60
2018-03-28T10:11:49.918Z,9.60
2018-03-28T10:14:51.241Z,9.60
2018-03-28T10:17:52.490Z,9.50
2018-03-28T10:21:00.699Z,9.50
2018-03-28T10:24:02.692Z,9.60
2018-03-28T10:27:04.695Z,9.60
2018-03-28T10:30:05.959Z,9.60
2018-03-28T10:33:07.244Z,9.50
2018-03-28T10:36:08.514Z,9.50
2018-03-28T10:39:09.770Z,9.60
2018-03-28T10:42:11.035Z,9.60
2018-03-28T10:45:12.254Z,9.50
2018-03-28T10:48:14.236Z,9.60
2018-03-28T10:51:16.253Z,9.70
2018-03-28T10:54:17.538Z,9.60
2018-03-28T10:57:18.803Z,9.60
2018-03-28T11:00:20.072Z,9.70
2018-03-28T11:03:21.332Z,9.80
2018-03-28T11:06:22.629Z,9.80
2018-03-28T11:09:24.659Z,9.80
2018-03-28T11:12:25.943Z,9.80
2018-03-28T11:15:27.211Z,9.70
2018-03-28T11:18:28.459Z,9.60
2018-03-28T11:21:29.707Z,9.60
2018-03-28T11:24:30.967Z,9.50
2018-03-28T11:27:32.198Z,9.60
2018-03-28T11:30:33.460Z,9.50
2018-03-28T11:33:34.708Z,9.60
2018-03-28T11:36:36.788Z,9.70
2018-03-28T11:39:38.822Z,9.60
2018-03-28T11:42:40.109Z,9.60
2018-03-28T11:45:41.367Z,9.60
2018-03-28T11:48:42.626Z,9.70
2018-03-28T11:51:43.874Z,10.30
2018-03-28T11:54:45.171Z,10.40
2018-03-28T11:57:46.515Z,10.20
2018-03-28T12:00:47.787Z,10.10
2018-03-28T12:03:49.043Z,9.90
2018-03-28T12:06:50.311Z,9.80
2018-03-28T12:09:51.555Z,9.80
2018-03-28T12:12:52.834Z,10.00
2018-03-28T12:15:54.100Z,10.30
2018-03-28T12:18:55.363Z,10.20
2018-03-28T12:21:56.599Z,10.50
2018-03-28T12:24:57.843Z,10.20
2018-03-28T12:27:59.147Z,10.60
2018-03-28T12:31:00.438Z,10.30
2018-03-28T12:34:01.769Z,10.20
2018-03-28T12:37:03.039Z,10.10
2018-03-28T12:40:04.359Z,10.00
2018-03-28T12:43:05.607Z,9.90
2018-03-28T12:46:07.624Z,9.80
2018-03-28T12:49:08.876Z,9.80
2018-03-28T12:52:17.264Z,9.80
2018-03-28T12:55:18.540Z,9.80
2018-03-28T12:58:19.722Z,9.80
2018-03-28T13:01:20.971Z,9.70
2018-03-28T13:04:22.966Z,9.70
2018-03-28T13:07:24.224Z,9.70
2018-03-28T13:10:26.247Z,9.80
2018-03-28T13:13:27.505Z,9.70
2018-03-28T13:16:28.793Z,9.80
2018-03-28T13:19:30.050Z,10.00
2018-03-28T13:22:31.319Z,9.90
2018-03-28T13:25:32.696Z,9.80
2018-03-28T13:28:33.952Z,9.80
2018-03-28T13:31:35.268Z,9.70
2018-03-28T13:34:36.587Z,9.70
2018-03-28T13:37:37.873Z,9.70
2018-03-28T13:40:39.904Z,9.60
2018-03-28T13:43:41.159Z,9.60
2018-03-28T13:46:42.412Z,9.60
2018-03-28T13:49:43.648Z,9.60
2018-03-28T13:52:45.660Z,9.40
2018-03-28T13:55:46.914Z,9.40
2018-03-28T13:58:48.157Z,9.30
2018-03-28T14:01:50.197Z,9.40
2018-03-28T14:04:51.461Z,9.40
2018-03-28T14:07:52.683Z,9.40
2018-03-28T14:10:54.385Z,9.20
2018-03-28T14:13:55.678Z,9.20
2018-03-28T14:16:56.967Z,9.30
2018-03-28T14:19:58.295Z,9.30
2018-03-28T14:22:59.586Z,9.30
2018-03-28T14:26:01.599Z,9.30
2018-03-28T14:29:02.885Z,9.30
2018-03-28T14:32:04.172Z,9.30
2018-03-28T14:35:05.436Z,9.30
2018-03-28T14:38:06.671Z,9.00
2018-03-28T14:41:07.957Z,8.90
2018-03-28T14:44:16.121Z,8.90
2018-03-28T14:47:17.385Z,8.70
2018-03-28T14:50:18.685Z,8.80
2018-03-28T14:53:19.955Z,8.60
2018-03-28T14:56:21.217Z,8.60
2018-03-28T14:59:22.470Z,8.60
2018-03-28T15:02:23.727Z,8.80
2018-03-28T15:05:24.995Z,8.90
2018-03-28T15:08:26.313Z,8.80
2018-03-28T15:11:28.329Z,8.60
2018-03-28T15:14:29.628Z,8.60
2018-03-28T15:17:30.905Z,8.60
2018-03-28T15:20:32.161Z,8.60
2018-03-28T15:23:33.419Z,8.60
2018-03-28T15:26:34.697Z,8.70
2018-03-28T15:29:35.987Z,8.60
2018-03-28T15:32:37.275Z,8.70
2018-03-28T15:35:38.558Z,8.80
2018-03-28T15:38:39.830Z,8.80
2018-03-28T15:41:41.110Z,8.90
2018-03-28T15:44:42.401Z,9.00
2018-03-28T15:47:44.435Z,8.90
2018-03-28T15:50:45.706Z,8.90
2018-03-28T15:53:47.003Z,8.90
2018-03-28T15:56:48.995Z,8.80
2018-03-28T15:59:51.003Z,8.70
2018-03-28T16:02:52.240Z,8.70
2018-03-28T16:05:54.291Z,8.80
2018-03-28T16:08:56.290Z,8.90
2018-03-28T16:11:58.383Z,8.90
2018-03-28T16:14:59.663Z,9.10
2018-03-28T16:18:00.994Z,8.90
2018-03-28T16:21:02.275Z,9.00
2018-03-28T16:24:04.353Z,8.90
2018-03-28T16:27:05.580Z,9.00
2018-03-28T16:30:06.895Z,8.80
2018-03-28T16:33:08.148Z,8.90
2018-03-28T16:36:10.170Z,8.90
2018-03-28T16:39:11.410Z,8.90
2018-03-28T16:42:12.694Z,8.90
2018-03-28T16:45:13.985Z,9.00
2018-03-28T16:48:15.409Z,9.00
2018-03-28T16:51:16.708Z,9.00
2018-03-28T16:54:17.950Z,9.00
2018-03-28T16:57:19.192Z,9.10
2018-03-28T17:00:20.455Z,9.20
2018-03-28T17:03:23.212Z,9.50
2018-03-28T17:06:25.688Z,9.20
2018-03-28T17:09:27.302Z,9.20
2018-03-28T17:12:28.604Z,9.10
2018-03-28T17:15:30.206Z,9.00
2018-03-28T17:18:32.256Z,9.00
2018-03-28T17:21:33.989Z,8.80
2018-03-28T17:24:35.269Z,9.10
2018-03-28T17:27:36.523Z,8.90
2018-03-28T17:30:37.886Z,8.90
2018-03-28T17:33:39.867Z,8.90
2018-03-28T17:36:41.142Z,8.90
2018-03-28T17:39:42.414Z,8.80
2018-03-28T17:42:43.679Z,8.80
2018-03-28T17:45:44.938Z,8.80
2018-03-28T17:48:46.225Z,8.80
2018-03-28T17:51:47.518Z,8.90
2018-03-28T17:54:48.800Z,8.90
2018-03-28T17:57:50.796Z,8.90
2018-03-28T18:00:52.075Z,8.80
2018-03-28T18:03:53.339Z,8.80
2018-03-28T18:06:54.662Z,8.90
2018-03-28T18:09:55.921Z,8.80
2018-03-28T18:12:57.252Z,8.90
2018-03-28T18:19:29.195Z,9.10
2018-03-28T18:22:31.813Z,9.10
2018-03-28T18:25:33.118Z,9.10
2018-03-28T18:28:34.403Z,9.00
2018-03-28T18:31:35.696Z,9.00
2018-03-28T18:34:38.407Z,8.90
2018-03-28T18:37:39.726Z,8.90
2018-03-28T18:40:41.479Z,8.90
2018-03-28T18:43:42.768Z,9.00
2018-03-28T18:46:44.029Z,9.10
2018-03-28T18:49:46.120Z,9.10
2018-03-28T18:52:47.457Z,9.10
2018-03-28T18:55:48.763Z,9.10
2018-03-28T18:58:51.179Z,9.00
2018-03-28T19:01:53.247Z,8.90
2018-03-28T19:04:55.449Z,8.80
2018-03-28T19:07:56.799Z,8.80
2018-03-28T19:10:59.400Z,8.80
2018-03-28T19:14:01.916Z,8.70
2018-03-28T19:17:05.416Z,8.70
2018-03-28T19:20:08.327Z,8.70
2018-03-28T19:23:10.185Z,8.70
2018-03-28T19:26:12.076Z,8.70
2018-03-28T19:29:14.529Z,8.60
2018-03-28T19:32:16.630Z,8.20
2018-03-28T19:35:18.423Z,8.20
2018-03-28T19:38:21.134Z,7.90
2018-03-28T19:41:22.533Z,7.70
2018-03-28T19:44:24.139Z,7.70
2018-03-28T19:47:26.653Z,7.40
2018-03-28T19:50:29.276Z,7.40
2018-03-28T19:53:30.990Z,7.40
2018-03-28T19:56:32.587Z,7.30
2018-03-28T19:59:34.357Z,7.30
2018-03-28T20:02:36.541Z,7.30
2018-03-28T20:05:39.052Z,7.10
2018-03-28T20:08:40.397Z,7.10
2018-03-28T20:11:43.101Z,7.00
2018-03-28T20:14:45.681Z,7.00
2018-03-28T20:17:48.304Z,7.00
2018-03-28T20:20:49.598Z,7.00
2018-03-28T20:23:50.992Z,7.00
2018-03-28T20:26:53.147Z,7.10
2018-03-28T20:29:54.787Z,7.10
2018-03-28T20:32:56.855Z,6.90
2018-03-28T20:35:58.854Z,6.70
2018-03-28T20:39:00.163Z,6.70
2018-03-28T20:42:01.429Z,6.60
2018-03-28T20:45:02.700Z,6.50
2018-03-28T20:48:03.990Z,6.60
2018-03-28T20:51:05.971Z,6.60
2018-03-28T20:54:08.068Z,6.60
2018-03-28T20:57:09.342Z,6.60
2018-03-28T21:00:10.587Z,6.60
2018-03-28T21:03:12.582Z,6.60
2018-03-28T21:06:13.866Z,6.60
2018-03-28T21:09:15.175Z,6.60
2018-03-28T21:12:16.556Z,6.60
2018-03-28T21:15:18.571Z,6.40
2018-03-28T21:18:19.862Z,6.40
2018-03-28T21:21:21.168Z,6.50
2018-03-28T21:24:23.211Z,6.50
2018-03-28T21:27:24.481Z,6.50
2018-03-28T21:30:25.743Z,6.50
2018-03-28T21:33:27.010Z,6.40
2018-03-28T21:36:28.422Z,6.50
2018-03-28T21:39:30.128Z,6.60
2018-03-28T21:42:31.579Z,6.50
2018-03-28T21:45:33.379Z,6.50
2018-03-28T21:48:34.711Z,6.50
2018-03-28T21:51:36.002Z,6.50
2018-03-28T21:54:37.319Z,6.30
2018-03-28T21:57:39.344Z,6.50
2018-03-28T22:00:40.615Z,6.50
2018-03-28T22:03:41.890Z,6.60
2018-03-28T22:06:43.911Z,6.20
2018-03-28T22:09:45.902Z,6.10
2018-03-28T22:12:47.174Z,6.10
2018-03-28T22:15:48.500Z,6.00
2018-03-28T22:18:49.857Z,6.20
2018-03-28T22:21:51.133Z,6.40
2018-03-28T22:24:52.432Z,6.30
2018-03-28T22:27:53.733Z,6.30
2018-03-28T22:30:55.045Z,6.20
2018-03-28T22:33:56.307Z,5.90
2018-03-28T22:36:58.353Z,5.90
2018-03-28T22:39:59.636Z,5.90
2018-03-28T22:43:01.663Z,5.80
2018-03-28T22:46:02.977Z,5.80
2018-03-28T22:49:04.976Z,5.70
2018-03-28T22:52:07.048Z,5.70
2018-03-28T22:55:08.375Z,5.60
2018-03-28T22:58:09.698Z,5.70
2018-03-28T23:01:10.994Z,5.50
2018-03-28T23:04:12.306Z,5.60
2018-03-28T23:07:14.308Z,5.70
2018-03-28T23:10:15.551Z,5.80
2018-03-28T23:13:17.562Z,5.60
2018-03-28T23:19:27.588Z,5.50
2018-03-28T23:22:37.802Z,5.40
2018-03-28T23:25:46.692Z,5.60
2018-03-28T23:28:47.936Z,5.50
2018-03-28T23:31:49.214Z,5.70
2018-03-28T23:34:50.506Z,5.80
2018-03-28T23:37:51.834Z,5.90
2018-03-28T23:40:53.086Z,5.90
2018-03-28T23:43:54.372Z,5.80
2018-03-28T23:46:55.671Z,5.90
2018-03-28T23:49:56.983Z,6.00
2018-03-28T23:52:58.302Z,6.00
2018-03-28T23:55:59.539Z,5.90
2018-03-28T23:59:00.790Z,6.00
